METAR AND TAF INFORMATION
METAR FOR EPBY
ADDS - METARS form results

(0228 UTC 24 January 2019)
Data provider http://aviationweather.gov/metar/data/
 
METAR text: EPBY 240200Z 07008KT 8000 NSC M09/M11 Q1012
Conditions at: EPBY (BYDGOSZCZ , PL) observed 0200 UTC 24 January 2019
Temperature: -9.0°C (16°F)
Dewpoint: -11.0°C (12°F) [RH = 85%]
Pressure (altimeter): 29.88 inches Hg (1012.0 mb)
Winds: from the ENE (70 degrees) at 9 MPH (8 knots; 4.1 m/s)
Visibility: 5 miles ( 8 km)
Ceiling: at least 12,000 feet AGL
Clouds: sky clear below 12,000 feet AGL
Weather: no significant weather observed at this time

METAR text: EPBY 240130Z 08007KT 6000 NSC M09/M11 Q1012
Conditions at: EPBY (BYDGOSZCZ , PL) observed 0130 UTC 24 January 2019
Temperature: -9.0°C (16°F)
Dewpoint: -11.0°C (12°F) [RH = 85%]
Pressure (altimeter): 29.88 inches Hg (1012.0 mb)
Winds: from the E (80 degrees) at 8 MPH (7 knots; 3.6 m/s)
Visibility: 4 miles ( 6 km)
Ceiling: at least 12,000 feet AGL
Clouds: sky clear below 12,000 feet AGL
Weather: no significant weather observed at this time

Forecast for: EPBY (BYDGOSZCZ , PL)
Text: TAF EPBY 232330Z 2400/2424 09008KT CAVOK
Forecast period: 0000 UTC 24 January 2019 to 0000 UTC 25 January 2019
Forecast type: FROM: standard forecast or significant change
Winds: from the E (90 degrees) at 9 MPH (8 knots; 4.1 m/s)
Visibility: 6 or more miles 10+ km)
Ceiling: unknown
Clouds: missing
Weather: NSW  (no significant weather)
Text: TEMPO 2400/2408 3000 BR
Forecast period: 0000 to 0800 UTC 24 January 2019
Forecast type: TEMPORARY: The following changes expected for less than half the time period
Visibility: 1.86 miles (2.99 km)
Ceiling: unknown
Clouds: missing
Weather: BR  (mist)

 AIRPORT MAP

 RUNWAY INFORMATION
Runway 08 Runway length 8202 ft Runway width 197 ft
Runway elevation 236 ft Runway displaced threshold 0 ft Runway heading 82
Runway 26 Runway length 8202 ft Runway width 197 ft
Runway elevation 233 ft Runway displaced threshold 0 ft Runway heading 262

 AIRPORT FREQUENCIES
Type INFO Name INFO Frequency 128.5 MHZ
Type TWR Name BYDGOSZCZ Frequency 131 MHZ

 AIRPORT NEAR NAVIGATION AIDS
Type NDB Name Bydgoszcz Frequency 109 KHZ
Type NDB Name Bydgoszcz Frequency 534 KHZ



Powered by Virtual Airlines Manager [v2.6.2]